^^
Station Historical Data
 
Daily Summary for January 27, 2020 Units:  Metric    English   Both
« Previous Day
Next Day »
Daily Weekly Monthly Yearly Custom
  Current: High: Low: Average:
Temperature: -4.5 °C -3.1 °C -6.2 °C -5 °C
Dew Point: -6.8 °C -5.6 °C -11.4 °C -8.2 °C
Humidity: 84% 84% 66% 79%
Wind Speed: 7.4km/h 14.8km/h 0.0km/h 6km/h
Wind Gust: 5.0km/h 9.5km/h - -
WindSSW - - ESE
Pressure: 1008.9 hPa 1011.9 hPa 1008.9 hPa -
Precipitation: 1.0 mm      
Historical Graphs
 
 
Tabular Data for January 27, 2020
Time Temperature Dew Point Pressure Wind Wind Speed Wind Gust Humidity Rainfall Rate (Hourly) solar Conditions
00:00 -3.1 °C -5.6 °C 1009.9 hPa West 3.7 km/h   83% 0.0 mm WeatherDisplay:10.37 W/m2 RA
00:05 -3.2 °C -5.7 °C 1009.9 hPa East 3.7 km/h 3.9 km/h 83% 0.0 mm WeatherDisplay:10.37 W/m2 RA
00:10 -3.2 °C -5.7 °C 1009.9 hPa East 3.7 km/h 3.9 km/h 83% 0.0 mm WeatherDisplay:10.37 W/m2 OVC
00:15 -3.2 °C -5.7 °C 1009.9 hPa SW 1.9 km/h   83% 0.0 mm WeatherDisplay:10.37 W/m2 OVC
00:20 -3.2 °C -5.7 °C 1009.9 hPa NNW 5.6 km/h 5.3 km/h 83% 0.0 mm WeatherDisplay:10.37 W/m2 OVC
00:25 -3.2 °C -5.7 °C 1009.9 hPa SW 1.9 km/h 1.9 km/h 83% 0.0 mm WeatherDisplay:10.37 W/m2 OVC
00:30 -3.2 °C -5.7 °C 1009.9 hPa East 5.6 km/h 1.9 km/h 83% 0.0 mm WeatherDisplay:10.37 W/m2 OVC
00:35 -3.2 °C -5.7 °C 1009.9 hPa South 1.9 km/h   83% 0.0 mm WeatherDisplay:10.37 W/m2 OVC
00:40 -3.2 °C -5.7 °C 1009.9 hPa NE 3.7 km/h 3.2 km/h 83% 0.0 mm WeatherDisplay:10.37 W/m2 OVC
00:45 -3.2 °C -5.7 °C 1009.9 hPa East 13.0 km/h 5.8 km/h 83% 0.0 mm WeatherDisplay:10.37 W/m2 OVC
00:50 -3.3 °C -5.8 °C 1009.9 hPa NE 5.6 km/h 3.5 km/h 83% 0.0 mm WeatherDisplay:10.37 W/m2 OVC
00:55 -3.3 °C -5.8 °C 1009.9 hPa SSE 3.7 km/h 1.9 km/h 83% 0.0 mm WeatherDisplay:10.37 W/m2 OVC
01:00 -3.3 °C -5.8 °C 1009.9 hPa NE 5.6 km/h 4.7 km/h 83% 0.0 mm WeatherDisplay:10.37 W/m2 OVC
01:05 -3.3 °C -5.8 °C 1009.9 hPa South 2.6 km/h 1.4 km/h 83% 0.0 mm WeatherDisplay:10.37 W/m2 OVC
01:10 -3.3 °C -5.8 °C 1009.9 hPa ESE 3.7 km/h 4.7 km/h 83% 0.0 mm WeatherDisplay:10.37 W/m2 OVC
01:15 -3.3 °C -5.8 °C 1009.9 hPa SE 5.6 km/h 4.2 km/h 83% 0.0 mm WeatherDisplay:10.37 W/m2 OVC
01:20 -3.3 °C -5.8 °C 1009.9 hPa ESE 3.7 km/h 2.3 km/h 83% 0.0 mm WeatherDisplay:10.37 W/m2 OVC
01:25 -3.4 °C -5.9 °C 1009.9 hPa SE 3.7 km/h 5.0 km/h 83% 0.0 mm WeatherDisplay:10.37 W/m2 OVC
01:30 -3.5 °C -6.1 °C 1009.9 hPa ESE 5.6 km/h 4.7 km/h 82% 0.0 mm WeatherDisplay:10.37 W/m2 OVC
01:35 -3.5 °C -6.3 °C 1009.9 hPa ESE 3.7 km/h 1.9 km/h 81% 0.0 mm WeatherDisplay:10.37 W/m2 OVC
01:40 -3.6 °C -6.4 °C 1009.9 hPa SE 4.2 km/h 1.4 km/h 81% 0.0 mm WeatherDisplay:10.37 W/m2 OVC
01:45 -3.6 °C -6.4 °C 1009.9 hPa ENE 5.6 km/h 3.2 km/h 81% 0.0 mm WeatherDisplay:10.37 W/m2 BKN
01:50 -3.7 °C -6.5 °C 1009.9 hPa NE 3.7 km/h 2.3 km/h 81% 0.0 mm WeatherDisplay:10.37 W/m2 BKN
01:55 -3.8 °C -6.6 °C 1009.9 hPa ENE 7.4 km/h 5.0 km/h 81% 0.0 mm WeatherDisplay:10.37 W/m2 BKN
02:00 -3.8 °C -6.6 °C 1009.9 hPa ESE 1.9 km/h 1.4 km/h 81% 0.0 mm WeatherDisplay:10.37 W/m2 BKN
02:05 -3.9 °C -6.7 °C 1009.9 hPa East 7.4 km/h 5.8 km/h 81% 0.0 mm WeatherDisplay:10.37 W/m2 BKN
02:10 -4.0 °C -6.8 °C 1009.9 hPa NE 3.7 km/h 3.5 km/h 81% 0.0 mm WeatherDisplay:10.37 W/m2 BKN
02:15 -4.1 °C -6.9 °C 1009.9 hPa ESE 2.3 km/h   81% 0.0 mm WeatherDisplay:10.37 W/m2 BKN
02:20 -4.2 °C -7.0 °C 1009.9 hPa NE 4.2 km/h 1.9 km/h 81% 0.0 mm WeatherDisplay:10.37 W/m2 BKN
02:25 -4.3 °C -7.1 °C 1009.9 hPa East 4.2 km/h 1.9 km/h 81% 0.0 mm WeatherDisplay:10.37 W/m2 BKN
02:30 -4.3 °C -7.1 °C 1008.9 hPa NE 7.4 km/h 3.9 km/h 81% 0.0 mm WeatherDisplay:10.37 W/m2 BKN
02:35 -4.4 °C -7.2 °C 1008.9 hPa SSE 1.9 km/h 1.4 km/h 81% 0.0 mm WeatherDisplay:10.37 W/m2 BKN
02:40 -4.5 °C -7.3 °C 1008.9 hPa NE 3.7 km/h 2.6 km/h 81% 0.0 mm WeatherDisplay:10.37 W/m2 BKN
02:45 -4.6 °C -7.4 °C 1009.9 hPa ENE 2.6 km/h   81% 0.0 mm WeatherDisplay:10.37 W/m2 BKN
02:50 -4.6 °C -7.4 °C 1009.9 hPa NE 2.6 km/h   81% 0.0 mm WeatherDisplay:10.37 W/m2 BKN
02:55 -4.7 °C -7.4 °C 1009.9 hPa Calm     81% 0.0 mm WeatherDisplay:10.37 W/m2 BKN
03:00 -4.7 °C -7.4 °C 1009.9 hPa ENE 3.7 km/h   81% 0.0 mm WeatherDisplay:10.37 W/m2 BKN
03:05 -4.8 °C -7.6 °C 1009.9 hPa ENE 3.7 km/h 2.3 km/h 81% 0.0 mm WeatherDisplay:10.37 W/m2 BKN
03:10 -4.8 °C -7.6 °C 1009.9 hPa East 3.7 km/h   81% 0.0 mm WeatherDisplay:10.37 W/m2 BKN
03:15 -5.0 °C -7.8 °C 1010.9 hPa NE 1.9 km/h 2.3 km/h 81% 0.0 mm WeatherDisplay:10.37 W/m2 CLR
03:20 -5.0 °C -7.8 °C 1010.9 hPa NE 3.7 km/h 1.9 km/h 81% 0.0 mm WeatherDisplay:10.37 W/m2 CLR
03:25 -5.0 °C -7.8 °C 1010.9 hPa NE 5.8 km/h 2.6 km/h 81% 0.0 mm WeatherDisplay:10.37 W/m2 CLR
03:30 -5.1 °C -7.8 °C 1010.9 hPa NE 3.7 km/h   81% 0.0 mm WeatherDisplay:10.37 W/m2 CLR
03:35 -5.1 °C -7.8 °C 1010.9 hPa ENE 3.7 km/h 2.6 km/h 81% 0.0 mm WeatherDisplay:10.37 W/m2 CLR
03:40 -5.2 °C -7.9 °C 1010.9 hPa NE 5.6 km/h 3.2 km/h 81% 0.0 mm WeatherDisplay:10.37 W/m2 CLR
03:45 -5.2 °C -7.8 °C 1010.9 hPa North 5.6 km/h 3.2 km/h 82% 0.0 mm WeatherDisplay:10.37 W/m2 BKN
03:50 -5.3 °C -7.9 °C 1010.9 hPa NE 4.7 km/h   82% 0.0 mm WeatherDisplay:10.37 W/m2 BKN
03:55 -5.4 °C -8.0 °C 1010.9 hPa NE 3.7 km/h 2.3 km/h 82% 0.0 mm WeatherDisplay:10.37 W/m2 BKN
04:00 -5.4 °C -8.0 °C 1010.9 hPa SSW 1.9 km/h   82% 0.0 mm WeatherDisplay:10.37 W/m2 BKN
04:05 -5.4 °C -8.0 °C 1010.9 hPa ENE 3.7 km/h 3.2 km/h 82% 0.0 mm WeatherDisplay:10.37 W/m2 BKN
04:10 -5.4 °C -8.0 °C 1010.9 hPa ESE 3.9 km/h 1.4 km/h 82% 0.0 mm WeatherDisplay:10.37 W/m2 BKN
04:15 -5.5 °C -8.1 °C 1010.9 hPa NE 3.7 km/h 1.9 km/h 82% 0.0 mm WeatherDisplay:10.37 W/m2 BKN
04:20 -5.5 °C -8.1 °C 1010.9 hPa ENE 5.6 km/h 3.2 km/h 82% 0.0 mm WeatherDisplay:10.37 W/m2 BKN
04:25 -5.5 °C -8.1 °C 1010.9 hPa NE 3.7 km/h 3.5 km/h 82% 0.0 mm WeatherDisplay:10.37 W/m2 BKN
04:30 -5.6 °C -8.2 °C 1010.9 hPa Calm     82% 0.0 mm WeatherDisplay:10.37 W/m2 BKN
04:35 -5.7 °C -8.3 °C 1010.9 hPa SSE 3.7 km/h 2.3 km/h 82% 0.0 mm WeatherDisplay:10.37 W/m2 BKN
04:40 -5.7 °C -8.3 °C 1010.9 hPa Calm     82% 0.0 mm WeatherDisplay:10.37 W/m2 BKN
04:45 -5.7 °C -8.3 °C 1010.9 hPa ESE 3.7 km/h   82% 0.0 mm WeatherDisplay:10.37 W/m2 CLR
04:50 -5.7 °C -8.3 °C 1010.9 hPa WNW 7.4 km/h   82% 0.0 mm WeatherDisplay:10.37 W/m2 CLR
04:55 -5.8 °C -8.4 °C 1010.9 hPa East 3.7 km/h 3.2 km/h 82% 0.0 mm WeatherDisplay:10.37 W/m2 CLR
05:00 -5.8 °C -8.4 °C 1010.9 hPa NE 1.9 km/h 1.9 km/h 82% 0.0 mm WeatherDisplay:10.37 W/m2 CLR
05:05 -5.8 °C -8.4 °C 1010.9 hPa SSE 1.9 km/h   82% 0.0 mm WeatherDisplay:10.37 W/m2 CLR
05:10 -5.8 °C -8.4 °C 1010.9 hPa ENE 3.7 km/h 3.5 km/h 82% 0.0 mm WeatherDisplay:10.37 W/m2 CLR
05:15 -5.8 °C -8.4 °C 1011.9 hPa Calm     82% 0.0 mm WeatherDisplay:10.37 W/m2 CLR
05:20 -5.9 °C -8.5 °C 1011.9 hPa NE 3.9 km/h 3.2 km/h 82% 0.0 mm WeatherDisplay:10.37 W/m2 CLR
05:25 -6.0 °C -8.6 °C 1011.9 hPa NE 3.7 km/h 1.9 km/h 82% 0.0 mm WeatherDisplay:10.37 W/m2 CLR
05:30 -6.0 °C -8.6 °C 1010.9 hPa Calm     82% 0.0 mm WeatherDisplay:10.37 W/m2 CLR
05:35 -6.0 °C -8.6 °C 1010.9 hPa East 1.9 km/h   82% 0.0 mm WeatherDisplay:10.37 W/m2 CLR
05:40 -6.0 °C -8.6 °C 1010.9 hPa East 1.9 km/h 2.3 km/h 82% 0.0 mm WeatherDisplay:10.37 W/m2 CLR
05:45 -6.0 °C -8.6 °C 1010.9 hPa NW 1.9 km/h 1.4 km/h 82% 0.0 mm WeatherDisplay:10.37 W/m2 CLR
05:50 -6.0 °C -8.6 °C 1010.9 hPa Calm     82% 0.0 mm WeatherDisplay:10.37 W/m2 CLR
05:55 -6.1 °C -8.7 °C 1010.9 hPa NE 1.9 km/h 1.4 km/h 82% 0.0 mm WeatherDisplay:10.37 W/m2 CLR
06:00 -6.1 °C -8.7 °C 1010.9 hPa Calm     82% 0.0 mm WeatherDisplay:10.37 W/m2 CLR
06:05 -6.1 °C -8.7 °C 1010.9 hPa East 3.7 km/h   82% 0.0 mm WeatherDisplay:10.37 W/m2 CLR
06:10 -6.1 °C -8.7 °C 1010.9 hPa ENE 3.7 km/h 1.4 km/h 82% 0.0 mm WeatherDisplay:10.37 W/m2 CLR
06:15 -6.1 °C -8.7 °C 1010.9 hPa ENE 6.9 km/h 1.9 km/h 82% 0.0 mm WeatherDisplay:10.37 W/m2 CLR
06:20 -6.1 °C -8.7 °C 1010.9 hPa NE 3.7 km/h 2.3 km/h 82% 0.0 mm WeatherDisplay:10.37 W/m2 CLR
06:25 -6.1 °C -8.7 °C 1010.9 hPa NW 3.7 km/h 2.3 km/h 82% 0.0 mm WeatherDisplay:10.37 W/m2 CLR
06:30 -6.1 °C -8.7 °C 1011.9 hPa NE 9.3 km/h 3.9 km/h 82% 0.0 mm WeatherDisplay:10.37 W/m2 CLR
06:35 -6.1 °C -8.7 °C 1011.9 hPa East 5.6 km/h 3.5 km/h 82% 0.0 mm WeatherDisplay:10.37 W/m2 CLR
06:40 -6.1 °C -8.7 °C 1011.9 hPa WSW 2.6 km/h 1.4 km/h 82% 0.0 mm WeatherDisplay:10.37 W/m2 CLR
06:45 -6.1 °C -8.7 °C 1010.9 hPa South 7.4 km/h 5.0 km/h 82% 0.0 mm WeatherDisplay:10.37 W/m2 CLR
06:50 -6.1 °C -8.7 °C 1010.9 hPa South 7.4 km/h 4.2 km/h 82% 0.0 mm WeatherDisplay:10.37 W/m2 CLR
06:55 -6.2 °C -9.2 °C 1010.9 hPa SSE 5.6 km/h 3.9 km/h 79% 1.0 mm WeatherDisplay:10.37 W/m2 RA
07:00 -6.2 °C -9.4 °C 1011.9 hPa North 3.7 km/h 2.6 km/h 78% 1.0 mm WeatherDisplay:10.37 W/m2 RA
07:05 -6.2 °C -9.4 °C 1011.9 hPa ESE 5.6 km/h 3.9 km/h 78% 1.0 mm WeatherDisplay:10.37 W/m2 CLR
07:10 -6.2 °C -9.6 °C 1011.9 hPa South 5.6 km/h 3.9 km/h 77% 1.0 mm WeatherDisplay:10.37 W/m2 CLR
07:15 -6.2 °C -9.6 °C 1011.9 hPa SSW 7.4 km/h 5.3 km/h 77% 1.0 mm WeatherDisplay:10.37 W/m2 BKN
07:20 -6.2 °C -9.7 °C 1011.9 hPa SE 7.4 km/h 2.3 km/h 76% 1.0 mm WeatherDisplay:10.37 W/m2 BKN
07:25 -6.2 °C -9.9 °C 1011.9 hPa SE 9.3 km/h 7.9 km/h 75% 1.0 mm WeatherDisplay:10.37 W/m2 BKN
07:30 -6.2 °C -10.1 °C 1010.9 hPa East 9.5 km/h 5.0 km/h 74% 1.0 mm WeatherDisplay:10.37 W/m2 BKN
07:35 -6.2 °C -10.1 °C 1010.9 hPa ENE 13.0 km/h 6.4 km/h 74% 1.0 mm WeatherDisplay:10.37 W/m2 BKN
07:40 -6.2 °C -10.3 °C 1010.9 hPa NE 5.6 km/h 4.7 km/h 73% 1.0 mm WeatherDisplay:10.37 W/m2 BKN
07:45 -6.2 °C -10.3 °C 1010.9 hPa South 5.6 km/h 3.2 km/h 73% 1.0 mm WeatherDisplay:10.37 W/m2 BKN
07:50 -6.2 °C -10.3 °C 1010.9 hPa East 9.3 km/h 4.2 km/h 73% 1.0 mm WeatherDisplay:10.37 W/m2 BKN
07:55 -6.2 °C -10.3 °C 1010.9 hPa East 5.6 km/h 3.9 km/h 73% 0.0 mm WeatherDisplay:10.37 W/m2 BKN
08:00 -6.2 °C -10.4 °C 1010.9 hPa East 5.6 km/h 4.2 km/h 72% 0.0 mm WeatherDisplay:10.37 W/m2 BKN
08:05 -6.1 °C -10.3 °C 1010.9 hPa ENE 7.4 km/h 4.7 km/h 72% 0.0 mm WeatherDisplay:10.37 W/m2 BKN
08:10 -6.1 °C -10.5 °C 1010.9 hPa East 5.6 km/h 5.0 km/h 71% 0.0 mm WeatherDisplay:10.37 W/m2 BKN
08:15 -6.1 °C -10.7 °C 1010.9 hPa NE 5.6 km/h 3.5 km/h 70% 0.0 mm WeatherDisplay:10.37 W/m2 OVC
08:20 -6.1 °C -10.9 °C 1010.9 hPa SE 3.7 km/h 4.2 km/h 69% 0.0 mm WeatherDisplay:10.37 W/m2 OVC
08:25 -6.1 °C -10.9 °C 1010.9 hPa East 7.4 km/h 5.0 km/h 69% 0.0 mm WeatherDisplay:10.37 W/m2 OVC
08:30 -6.1 °C -11.1 °C 1010.9 hPa SE 9.3 km/h 5.0 km/h 68% 0.0 mm WeatherDisplay:10.37 W/m2 OVC
08:35 -6.1 °C -11.2 °C 1010.9 hPa East 5.6 km/h 4.7 km/h 67% 0.0 mm WeatherDisplay:10.37 W/m2 OVC
08:40 -6.1 °C -11.2 °C 1010.9 hPa East 5.6 km/h 3.2 km/h 67% 0.0 mm WeatherDisplay:10.37 W/m2 OVC
08:45 -6.1 °C -11.1 °C 1010.9 hPa East 9.3 km/h 5.3 km/h 68% 0.0 mm WeatherDisplay:10.37 W/m2 BKN
08:50 -6.1 °C -11.2 °C 1010.9 hPa NE 7.4 km/h 5.3 km/h 67% 0.0 mm WeatherDisplay:10.37 W/m2 BKN
08:55 -6.1 °C -11.2 °C 1010.9 hPa East 5.6 km/h 5.3 km/h 67% 0.0 mm WeatherDisplay:10.37 W/m2 BKN
09:00 -6.1 °C -11.2 °C 1010.9 hPa SE 8.7 km/h 2.6 km/h 67% 0.0 mm WeatherDisplay:10.37 W/m2 BKN
09:05 -6.1 °C -11.4 °C 1010.9 hPa NW 7.4 km/h 5.3 km/h 66% 0.0 mm WeatherDisplay:10.37 W/m2 BKN
09:10 -6.1 °C -11.4 °C 1010.9 hPa South 4.2 km/h 3.2 km/h 66% 0.0 mm WeatherDisplay:10.37 W/m2 BKN
09:15 -6.1 °C -11.4 °C 1010.9 hPa East 9.3 km/h 5.8 km/h 66% 0.0 mm WeatherDisplay:10.37 W/m2 OVC
09:20 -6.1 °C -11.4 °C 1010.9 hPa NE 7.4 km/h 5.8 km/h 66% 0.0 mm WeatherDisplay:10.37 W/m2 OVC
09:25 -6.1 °C -11.4 °C 1010.9 hPa NE 5.6 km/h 4.2 km/h 66% 0.0 mm WeatherDisplay:10.37 W/m2 OVC
09:30 -6.0 °C -11.3 °C 1010.9 hPa East 13.0 km/h 5.3 km/h 66% 0.0 mm WeatherDisplay:10.37 W/m2 OVC
09:35 -6.0 °C -11.2 °C 1010.9 hPa NE 9.3 km/h 6.1 km/h 67% 0.0 mm WeatherDisplay:10.37 W/m2 OVC
09:40 -6.0 °C -11.2 °C 1010.9 hPa East 5.6 km/h 6.4 km/h 67% 0.0 mm WeatherDisplay:10.37 W/m2 OVC
09:45 -5.9 °C -11.1 °C 1010.9 hPa East 7.4 km/h 5.8 km/h 67% 0.0 mm WeatherDisplay:10.37 W/m2 CLR
09:50 -5.9 °C -11.1 °C 1010.9 hPa South 5.6 km/h 3.9 km/h 67% 0.0 mm WeatherDisplay:10.37 W/m2 CLR
09:55 -5.9 °C -11.1 °C 1010.9 hPa NE 11.1 km/h 3.5 km/h 67% 0.0 mm WeatherDisplay:10.37 W/m2 CLR
10:00 -5.8 °C -10.9 °C 1010.9 hPa ESE 6.1 km/h 2.6 km/h 67% 0.0 mm WeatherDisplay:10.37 W/m2 CLR
10:05 -5.8 °C -10.8 °C 1010.9 hPa East 3.7 km/h 1.9 km/h 68% 0.0 mm WeatherDisplay:10.37 W/m2 CLR
10:10 -5.8 °C -10.8 °C 1010.9 hPa East 5.6 km/h 3.2 km/h 68% 0.0 mm WeatherDisplay:10.37 W/m2 CLR
10:15 -5.8 °C -10.8 °C 1010.9 hPa SSE 5.6 km/h 3.9 km/h 68% 0.0 mm WeatherDisplay:10.37 W/m2 CLR
10:20 -5.8 °C -10.8 °C 1010.9 hPa North 7.4 km/h 3.9 km/h 68% 0.0 mm WeatherDisplay:10.37 W/m2 CLR
10:25 -5.7 °C -10.7 °C 1010.9 hPa SSE 5.6 km/h 4.7 km/h 68% 0.0 mm WeatherDisplay:10.37 W/m2 CLR
10:30 -5.7 °C -10.7 °C 1011.9 hPa ENE 14.8 km/h 6.1 km/h 68% 0.0 mm WeatherDisplay:10.37 W/m2 CLR
10:35 -5.7 °C -10.5 °C 1011.9 hPa South 3.7 km/h 2.3 km/h 69% 0.0 mm WeatherDisplay:10.37 W/m2 CLR
10:40 -5.7 °C -10.5 °C 1011.9 hPa NE 7.4 km/h 4.2 km/h 69% 0.0 mm WeatherDisplay:10.37 W/m2 CLR
10:45 -5.6 °C -10.2 °C 1011.9 hPa South 5.6 km/h 5.3 km/h 70% 0.0 mm WeatherDisplay:10.37 W/m2 -SN
10:50 -5.6 °C -10.0 °C 1011.9 hPa East 9.3 km/h 5.3 km/h 71% 0.0 mm WeatherDisplay:10.37 W/m2 -SN
10:55 -5.6 °C -10.0 °C 1011.9 hPa East 7.4 km/h 3.5 km/h 71% 0.0 mm WeatherDisplay:10.37 W/m2 -SN
11:00 -5.6 °C -9.8 °C 1010.9 hPa East 7.9 km/h 5.0 km/h 72% 0.0 mm WeatherDisplay:10.37 W/m2 -SN
11:05 -5.5 °C -9.6 °C 1010.9 hPa West 7.4 km/h 5.8 km/h 73% 0.0 mm WeatherDisplay:10.37 W/m2 -SN
11:10 -5.5 °C -9.6 °C 1010.9 hPa NE 9.3 km/h 6.9 km/h 73% 0.0 mm WeatherDisplay:10.37 W/m2 -SN
11:15 -5.5 °C -9.6 °C 1011.9 hPa East 5.6 km/h 3.9 km/h 73% 0.0 mm WeatherDisplay:10.37 W/m2 -SN
11:20 -5.4 °C -9.3 °C 1011.9 hPa East 7.4 km/h 4.7 km/h 74% 0.0 mm WeatherDisplay:10.37 W/m2 -SN
11:25 -5.4 °C -9.3 °C 1011.9 hPa ESE 9.3 km/h 6.1 km/h 74% 0.0 mm WeatherDisplay:10.37 W/m2 -SN
11:30 -5.3 °C -9.2 °C 1011.9 hPa South 5.6 km/h 7.2 km/h 74% 0.0 mm WeatherDisplay:10.37 W/m2 -SN
11:35 -5.2 °C -9.1 °C 1011.9 hPa NE 7.4 km/h 6.4 km/h 74% 0.0 mm WeatherDisplay:10.37 W/m2 -SN
11:40 -5.2 °C -8.9 °C 1011.9 hPa South 3.7 km/h 3.2 km/h 75% 0.0 mm WeatherDisplay:10.37 W/m2 -SN
11:45 -5.2 °C -8.8 °C 1010.9 hPa ESE 11.1 km/h 5.3 km/h 76% 0.0 mm WeatherDisplay:10.37 W/m2 -SN
11:50 -5.2 °C -8.8 °C 1010.9 hPa SSE 13.0 km/h 7.6 km/h 76% 0.0 mm WeatherDisplay:10.37 W/m2 -SN
11:55 -5.2 °C -8.8 °C 1010.9 hPa East 11.1 km/h 3.5 km/h 76% 0.0 mm WeatherDisplay:10.37 W/m2 -SN
12:00 -5.1 °C -8.7 °C 1010.9 hPa SE 11.1 km/h 7.2 km/h 76% 0.0 mm WeatherDisplay:10.37 W/m2 -SN
12:05 -5.1 °C -8.5 °C 1010.9 hPa East 11.1 km/h 6.4 km/h 77% 0.0 mm WeatherDisplay:10.37 W/m2 -SN
12:10 -5.0 °C -8.4 °C 1010.9 hPa East 6.1 km/h 3.2 km/h 77% 0.0 mm WeatherDisplay:10.37 W/m2 -SN
12:15 -4.9 °C -8.2 °C 1009.9 hPa NE 9.3 km/h 5.0 km/h 78% 0.0 mm WeatherDisplay:10.37 W/m2 -SN
12:20 -4.9 °C -8.2 °C 1009.9 hPa South 9.3 km/h 9.0 km/h 78% 0.0 mm WeatherDisplay:10.37 W/m2 -SN
12:25 -4.8 °C -8.1 °C 1009.9 hPa South 5.6 km/h 3.9 km/h 78% 0.0 mm WeatherDisplay:10.37 W/m2 -SN
12:30 -4.8 °C -7.9 °C 1009.9 hPa ENE 9.3 km/h 5.3 km/h 79% 0.0 mm WeatherDisplay:10.37 W/m2 -SN
12:35 -4.8 °C -7.9 °C 1009.9 hPa North 7.4 km/h 5.0 km/h 79% 0.0 mm WeatherDisplay:10.37 W/m2 -SN
12:40 -4.8 °C -7.9 °C 1009.9 hPa South 9.3 km/h 6.9 km/h 79% 0.0 mm WeatherDisplay:10.37 W/m2 -SN
12:45 -4.7 °C -7.8 °C 1009.9 hPa ESE 9.3 km/h 5.3 km/h 79% 0.0 mm WeatherDisplay:10.37 W/m2 -SN
12:50 -4.7 °C -7.8 °C 1009.9 hPa ENE 5.6 km/h 5.3 km/h 79% 0.0 mm WeatherDisplay:10.37 W/m2 -SN
12:55 -4.7 °C -7.8 °C 1009.9 hPa ESE 9.3 km/h 5.8 km/h 79% 0.0 mm WeatherDisplay:10.37 W/m2 -SN
13:00 -4.6 °C -7.7 °C 1009.9 hPa NE 5.8 km/h 4.7 km/h 79% 0.0 mm WeatherDisplay:10.37 W/m2 -SN
13:05 -4.6 °C -7.7 °C 1009.9 hPa NE 3.7 km/h 3.2 km/h 79% 0.0 mm WeatherDisplay:10.37 W/m2 -SN
13:10 -4.5 °C -7.6 °C 1009.9 hPa SE 7.4 km/h 2.6 km/h 79% 0.0 mm WeatherDisplay:10.37 W/m2 -SN
13:15 -4.5 °C -7.6 °C 1008.9 hPa East 14.8 km/h 7.9 km/h 79% 0.0 mm WeatherDisplay:10.37 W/m2 -SN
13:20 -4.4 °C -7.5 °C 1008.9 hPa East 7.4 km/h 3.5 km/h 79% 0.0 mm WeatherDisplay:10.37 W/m2 -SN
13:25 -4.4 °C -7.2 °C 1008.9 hPa ENE 7.4 km/h 3.2 km/h 81% 0.0 mm WeatherDisplay:10.37 W/m2 -SN
13:30 -4.4 °C -7.2 °C 1009.9 hPa North 9.3 km/h 7.2 km/h 81% 0.0 mm WeatherDisplay:10.37 W/m2 -SN
13:35 -4.4 °C -7.2 °C 1009.9 hPa South 9.3 km/h 6.1 km/h 81% 0.0 mm WeatherDisplay:10.37 W/m2 -SN
13:40 -4.4 °C -7.2 °C 1009.9 hPa South 7.4 km/h 6.9 km/h 81% 0.0 mm WeatherDisplay:10.37 W/m2 -SN
13:45 -4.4 °C -7.2 °C 1009.9 hPa South 5.6 km/h 5.3 km/h 81% 0.0 mm WeatherDisplay:10.37 W/m2 -SN
13:50 -4.4 °C -7.2 °C 1009.9 hPa East 13.0 km/h 6.4 km/h 81% 0.0 mm WeatherDisplay:10.37 W/m2 -SN
13:55 -4.4 °C -7.2 °C 1009.9 hPa NE 5.6 km/h 2.6 km/h 81% 0.0 mm WeatherDisplay:10.37 W/m2 -SN
14:00 -4.4 °C -7.0 °C 1009.9 hPa SE 13.0 km/h 9.5 km/h 82% 0.0 mm WeatherDisplay:10.37 W/m2 -SN
14:05 -4.4 °C -7.0 °C 1009.9 hPa South 7.4 km/h 3.9 km/h 82% 0.0 mm WeatherDisplay:10.37 W/m2 -SN
14:10 -4.4 °C -7.0 °C 1009.9 hPa ESE 9.3 km/h 6.4 km/h 82% 0.0 mm WeatherDisplay:10.37 W/m2 -SN
14:15 -4.4 °C -7.0 °C 1009.9 hPa East 14.8 km/h 6.9 km/h 82% 0.0 mm WeatherDisplay:10.37 W/m2 -SG
14:20 -4.4 °C -7.0 °C 1009.9 hPa ESE 5.6 km/h 3.9 km/h 82% 0.0 mm WeatherDisplay:10.37 W/m2 -SG
14:25 -4.4 °C -7.0 °C 1009.9 hPa ENE 7.4 km/h 4.7 km/h 82% 0.0 mm WeatherDisplay:10.37 W/m2 -SG
14:30 -4.4 °C -6.8 °C 1009.9 hPa East 7.4 km/h 5.8 km/h 83% 0.0 mm WeatherDisplay:10.37 W/m2 -SG
14:35 -4.4 °C -6.8 °C 1009.9 hPa ENE 5.6 km/h 4.7 km/h 83% 0.0 mm WeatherDisplay:10.37 W/m2 -SG
14:40 -4.4 °C -6.8 °C 1009.9 hPa ESE 7.6 km/h 4.2 km/h 83% 0.0 mm WeatherDisplay:10.37 W/m2 -SG
14:45 -4.3 °C -6.8 °C 1009.9 hPa ESE 5.6 km/h 4.7 km/h 83% 0.0 mm WeatherDisplay:10.37 W/m2 -SG
14:50 -4.4 °C -6.8 °C 1009.9 hPa East 7.9 km/h 4.7 km/h 83% 0.0 mm WeatherDisplay:10.37 W/m2 -SG
14:55 -4.4 °C -6.8 °C 1009.9 hPa East 9.3 km/h 6.9 km/h 83% 0.0 mm WeatherDisplay:10.37 W/m2 -SG
15:00 -4.4 °C -6.8 °C 1009.9 hPa ESE 3.7 km/h 3.5 km/h 83% 0.0 mm WeatherDisplay:10.37 W/m2 -SG
15:05 -4.4 °C -6.8 °C 1009.9 hPa South 3.7 km/h 4.2 km/h 83% 0.0 mm WeatherDisplay:10.37 W/m2 -SG
15:10 -4.5 °C -6.9 °C 1009.9 hPa SW 5.6 km/h 3.5 km/h 83% 0.0 mm WeatherDisplay:10.37 W/m2 -SG
15:15 -4.5 °C -6.9 °C 1008.9 hPa East 5.8 km/h 2.6 km/h 83% 0.0 mm WeatherDisplay:10.37 W/m2 -SG
15:20 -4.5 °C -6.9 °C 1008.9 hPa South 9.3 km/h 3.2 km/h 83% 0.0 mm WeatherDisplay:10.37 W/m2 -SG
15:25 -4.5 °C -6.9 °C 1008.9 hPa East 9.3 km/h 5.0 km/h 83% 0.0 mm WeatherDisplay:10.37 W/m2 -SG
15:30 -4.5 °C -6.9 °C 1008.9 hPa NNE 5.6 km/h 3.2 km/h 83% 0.0 mm WeatherDisplay:10.37 W/m2 -SG
15:35 -4.5 °C -6.9 °C 1008.9 hPa South 3.7 km/h 2.6 km/h 83% 0.0 mm WeatherDisplay:10.37 W/m2 -SG
15:40 -4.5 °C -6.9 °C 1008.9 hPa ENE 7.4 km/h 5.0 km/h 83% 0.0 mm WeatherDisplay:10.37 W/m2 -SG
15:45 -4.5 °C -6.9 °C 1009.9 hPa SSE 3.7 km/h 2.6 km/h 83% 0.0 mm WeatherDisplay:10.37 W/m2 -SG
15:50 -4.5 °C -6.9 °C 1009.9 hPa SE 7.4 km/h 3.2 km/h 83% 0.0 mm WeatherDisplay:10.37 W/m2 -SG
15:55 -4.5 °C -6.9 °C 1009.9 hPa North 3.7 km/h 1.9 km/h 83% 0.0 mm WeatherDisplay:10.37 W/m2 -SG
16:00 -4.6 °C -7.1 °C 1008.9 hPa East 5.6 km/h 4.7 km/h 83% 0.0 mm WeatherDisplay:10.37 W/m2 -SG
16:05 -4.6 °C -7.1 °C 1008.9 hPa ESE 7.4 km/h 3.5 km/h 83% 0.0 mm WeatherDisplay:10.37 W/m2 -SG
16:10 -4.5 °C -6.9 °C 1008.9 hPa North 5.6 km/h 1.4 km/h 83% 0.0 mm WeatherDisplay:10.37 W/m2 -SG
16:15 -4.5 °C -6.9 °C 1008.9 hPa SE 5.6 km/h 4.2 km/h 83% 0.0 mm WeatherDisplay:10.37 W/m2 -SG
16:20 -4.5 °C -6.9 °C 1008.9 hPa NE 4.7 km/h 2.6 km/h 83% 0.0 mm WeatherDisplay:10.37 W/m2 -SG
16:25 -4.5 °C -6.8 °C 1008.9 hPa East 13.7 km/h 3.5 km/h 84% 0.0 mm WeatherDisplay:10.37 W/m2 -SG
16:30 -4.5 °C -6.8 °C 1008.9 hPa East 9.3 km/h 3.9 km/h 84% 0.0 mm WeatherDisplay:10.37 W/m2 -SG
16:35 -4.5 °C -6.8 °C 1008.9 hPa ESE 11.1 km/h 5.0 km/h 84% 0.0 mm WeatherDisplay:10.37 W/m2 -SG
16:40 -4.5 °C -6.8 °C 1008.9 hPa East 5.6 km/h 3.5 km/h 84% 0.0 mm WeatherDisplay:10.37 W/m2 -SG
16:45 -4.5 °C -6.8 °C 1008.9 hPa South 9.7 km/h 3.5 km/h 84% 0.0 mm WeatherDisplay:10.37 W/m2 -SN
16:50 -4.5 °C -6.8 °C 1008.9 hPa NE 7.4 km/h 4.7 km/h 84% 0.0 mm WeatherDisplay:10.37 W/m2 -SN
16:55 -4.5 °C -6.8 °C 1008.9 hPa East 4.2 km/h 2.6 km/h 84% 0.0 mm WeatherDisplay:10.37 W/m2 -SN
17:00 -4.5 °C -6.8 °C 1008.9 hPa SE 5.6 km/h 3.2 km/h 84% 0.0 mm WeatherDisplay:10.37 W/m2 -SN
17:05 -4.5 °C -6.8 °C 1008.9 hPa ESE 3.7 km/h 1.4 km/h 84% 0.0 mm WeatherDisplay:10.37 W/m2 -SN
17:10 -4.5 °C -6.8 °C 1008.9 hPa East 3.7 km/h 1.9 km/h 84% 0.0 mm WeatherDisplay:10.37 W/m2 -SN
17:15 -4.5 °C -6.8 °C 1008.9 hPa SE 3.7 km/h 2.6 km/h 84% 0.0 mm WeatherDisplay:10.37 W/m2 -SN
17:20 -4.5 °C -6.8 °C 1008.9 hPa WSW 2.3 km/h 2.6 km/h 84% 0.0 mm WeatherDisplay:10.37 W/m2 -SN
17:25 -4.5 °C -6.8 °C 1008.9 hPa East 7.4 km/h 2.3 km/h 84% 0.0 mm WeatherDisplay:10.37 W/m2 -SN
17:30 -4.5 °C -6.8 °C 1008.9 hPa NW 5.6 km/h 4.7 km/h 84% 0.0 mm WeatherDisplay:10.37 W/m2 -SN
17:35 -4.5 °C -6.8 °C 1008.9 hPa ESE 7.4 km/h 5.8 km/h 84% 0.0 mm WeatherDisplay:10.37 W/m2 -SN
17:40 -4.5 °C -6.8 °C 1008.9 hPa South 5.6 km/h 3.2 km/h 84% 0.0 mm WeatherDisplay:10.37 W/m2 -SN
17:45 -4.5 °C -6.8 °C 1008.9 hPa East 4.7 km/h 1.4 km/h 84% 0.0 mm WeatherDisplay:10.37 W/m2 -SN
17:50 -4.5 °C -6.8 °C 1008.9 hPa South 9.3 km/h 5.0 km/h 84% 0.0 mm WeatherDisplay:10.37 W/m2 -SN
17:55 -4.5 °C -6.8 °C 1008.9 hPa SE 4.2 km/h 2.3 km/h 84% 0.0 mm WeatherDisplay:10.37 W/m2 -SN
18:00 -4.5 °C -6.8 °C 1008.9 hPa SSW 7.4 km/h 5.0 km/h 84% 0.0 mm WeatherDisplay:10.37 W/m2 -SN
Sääasema nurmiin, Utti
Page generated in 1.12 seconds.